Weather at Aviosuperficie Aeroporto Scalea

Public forecast

Using degrees Celsius for public forecast. Weather courtesy of forecast.io.

Closest aviation weather report (METAR) to Aviosuperficie Aeroporto Scalea

Closest report is Lamezia Terme Airport, 56.0 nm (103.7 km) SSE. Retrieved 2022/08/14 05:20 UTC (8 minutes ago):

LICA 140520Z AUTO 07005KT 9999 NCD 20/19 Q1009

Closest aviation forecast (TAF) to Aviosuperficie Aeroporto Scalea

Closest forecast is Lamezia Terme Airport, 56.0 nm (103.7 km) SSE. Retrieved 2022-08-14 00:00 UTC (5 hours ago):

TAF LICA 132300Z 1400/1424 27006KT 9999 SCT030 TEMPO 1400/1405 TSRA FEW025CB BECMG 1408/1410 27016KT BECMG 1416/1418 28006KT